Terminal Aerodrome Forecast
Issued by NWS

Home | Current Version | Previous Version | Graphics & Text | Print | Product List | Glossary On
Versions: 1 2 3 4 5 6 7 8 9 10 11 12
000
FTUS43 KICT 282322
TAFHUT
TAF
KHUT 282322Z 2900/2924 02010KT P6SM SKC
     FM290200 02004KT P6SM SKC
      TEMPO 2917/2921 FEW040=

USA.gov is the U.S. government's official web portal to all federal, state and local government web resources and services.